Kirensk, Russia
Current Conditions -  °F | °C
As of 4:30 PM on Saturday 29 Nov 2014 (Local Time) from UIBB Reporting Station
Broken Clouds Broken Clouds  
Wind Chill: -41°   Ceiling: 20000
Heat Index: -24°   Visibility: 6mi
Dew Point: -35°   Wind: 7mph
Humidity: 57%   Direction: 270°W
Pressure: 30.68"   Gusts: NA
Location:  57.79°N, 108.11°E
Report Text: UIBB 290830Z 27003MPS 9999 BKN200 M31/M37 Q1039 NOSIG RMKQFE736/0981 30820550
Loading
Personal Weather Stations






























Interactive Weather Map New forecast layout! Learn more

10-Day Weather Forecast

Advertisements
Track Severe Weather on mobile